createdAt,value
2023-04-21T00:01:32.110Z,99742.00
2023-04-21T00:04:13.854Z,99736.59
2023-04-21T00:06:47.153Z,99730.72
2023-04-21T00:09:30.509Z,99733.41
2023-04-21T00:12:10.769Z,99731.38
2023-04-21T00:14:50.828Z,99726.28
2023-04-21T00:17:26.491Z,99724.72
2023-04-21T00:20:05.112Z,99723.16
2023-04-21T00:22:42.772Z,99723.94
2023-04-21T00:25:15.024Z,99729.31
2023-04-21T00:27:52.110Z,99729.56
2023-04-21T00:30:29.732Z,99723.88
2023-04-21T00:33:06.599Z,99723.50
2023-04-21T00:35:47.776Z,99725.88
2023-04-21T00:38:28.026Z,99722.97
2023-04-21T00:41:11.955Z,99724.28
2023-04-21T00:44:08.210Z,99729.47
2023-04-21T00:46:49.068Z,99723.72
2023-04-21T00:49:21.078Z,99726.53
2023-04-21T00:52:03.703Z,99727.28
2023-04-21T00:54:42.550Z,99722.25
2023-04-21T00:57:20.642Z,99721.16
2023-04-21T00:59:55.950Z,99718.19
2023-04-21T01:02:33.659Z,99720.25
2023-04-21T01:05:12.558Z,99728.47
2023-04-21T01:07:42.910Z,99719.81
2023-04-21T01:10:17.018Z,99725.53
2023-04-21T01:12:58.592Z,99719.09
2023-04-21T01:15:31.484Z,99718.00
2023-04-21T01:18:11.939Z,99719.66
2023-04-21T01:20:50.082Z,99716.78
2023-04-21T01:23:31.145Z,99714.94
2023-04-21T01:26:08.875Z,99713.50
2023-04-21T01:28:54.645Z,99712.94
2023-04-21T01:31:30.821Z,99715.91
2023-04-21T01:34:06.160Z,99712.34
2023-04-21T01:36:46.586Z,99702.19
2023-04-21T01:39:21.690Z,99704.38
2023-04-21T01:41:59.858Z,99711.84
2023-04-21T01:44:35.824Z,99711.84
2023-04-21T01:47:11.703Z,99707.88
2023-04-21T01:49:47.996Z,99709.47
2023-04-21T01:52:21.148Z,99708.38
2023-04-21T01:54:51.156Z,99708.25
2023-04-21T01:57:23.522Z,99704.91
2023-04-21T02:00:02.965Z,99710.50
2023-04-21T02:02:38.826Z,99709.19
2023-04-21T02:05:19.796Z,99712.91
2023-04-21T02:07:58.046Z,99712.47
2023-04-21T02:10:38.968Z,99719.75
2023-04-21T02:13:13.952Z,99716.06
2023-04-21T02:15:53.014Z,99718.25
2023-04-21T02:18:35.289Z,99709.22
2023-04-21T02:21:19.837Z,99709.13
2023-04-21T02:23:54.729Z,99711.81
2023-04-21T02:26:24.901Z,99711.81
2023-04-21T02:28:59.473Z,99713.09
2023-04-21T02:31:57.375Z,99720.13
2023-04-21T02:34:44.428Z,99714.59
2023-04-21T02:37:19.742Z,99714.09
2023-04-21T02:40:00.808Z,99718.63
2023-04-21T02:42:41.326Z,99720.66
2023-04-21T02:45:21.129Z,99724.91
2023-04-21T02:48:01.720Z,99724.09
2023-04-21T02:50:40.144Z,99729.34
2023-04-21T02:53:26.943Z,99726.56
2023-04-21T02:56:04.735Z,99730.91
2023-04-21T02:58:52.045Z,99724.78
2023-04-21T03:01:30.298Z,99730.84
2023-04-21T03:04:13.054Z,99738.44
2023-04-21T03:06:56.685Z,99742.28
2023-04-21T03:09:29.286Z,99740.91
2023-04-21T03:12:05.513Z,99746.38
2023-04-21T03:14:42.304Z,99742.97
2023-04-21T03:17:19.558Z,99743.34
2023-04-21T03:20:04.608Z,99737.44
2023-04-21T03:22:39.211Z,99745.00
2023-04-21T03:25:21.954Z,99744.75
2023-04-21T03:28:02.543Z,99751.56
2023-04-21T03:30:46.628Z,99755.47
2023-04-21T03:33:27.864Z,99755.19
2023-04-21T03:36:08.379Z,99748.88
2023-04-21T03:38:54.016Z,99759.44
2023-04-21T03:41:33.684Z,99757.00
2023-04-21T03:44:12.958Z,99764.94
2023-04-21T03:46:57.968Z,99761.06
2023-04-21T03:49:36.742Z,99759.25
2023-04-21T03:52:18.177Z,99761.38
2023-04-21T03:55:03.156Z,99769.72
2023-04-21T03:57:38.471Z,99756.00
2023-04-21T04:00:23.300Z,99761.66
2023-04-21T04:03:10.696Z,99771.50
2023-04-21T04:05:48.784Z,99776.09
2023-04-21T04:08:35.962Z,99782.03
2023-04-21T04:11:08.419Z,99769.88
2023-04-21T04:13:48.331Z,99776.59
2023-04-21T04:16:29.248Z,99766.00
2023-04-21T04:19:12.827Z,99777.94
2023-04-21T04:21:55.127Z,99778.84
2023-04-21T04:24:38.450Z,99773.06
2023-04-21T04:27:20.568Z,99767.69
2023-04-21T04:30:01.753Z,99783.22
2023-04-21T04:32:47.417Z,99784.06
2023-04-21T04:35:29.523Z,99785.97
2023-04-21T04:38:14.919Z,99794.50
2023-04-21T04:41:04.176Z,99792.53
2023-04-21T04:43:44.982Z,99791.50
2023-04-21T04:46:25.805Z,99797.78
2023-04-21T04:49:04.001Z,99799.25
2023-04-21T04:51:44.640Z,99796.56
2023-04-21T04:54:24.823Z,99789.31
2023-04-21T04:57:11.138Z,99786.00
2023-04-21T04:59:48.869Z,99788.84
2023-04-21T05:02:27.414Z,99793.78
2023-04-21T05:05:05.087Z,99796.84
2023-04-21T05:07:45.951Z,99801.00
2023-04-21T05:10:32.830Z,99807.72
2023-04-21T05:13:10.981Z,99799.16
2023-04-21T05:15:46.836Z,99804.41
2023-04-21T05:18:26.539Z,99801.34
2023-04-21T05:21:07.562Z,99798.41
2023-04-21T05:23:45.397Z,99802.03
2023-04-21T05:26:21.492Z,99797.34
2023-04-21T05:29:00.512Z,99798.56
2023-04-21T05:31:35.011Z,99799.72
2023-04-21T05:34:10.509Z,99802.34
2023-04-21T05:36:49.107Z,99800.47
2023-04-21T05:39:30.001Z,99801.81
2023-04-21T05:42:08.004Z,99801.97
2023-04-21T05:44:46.527Z,99799.38
2023-04-21T05:47:27.339Z,99798.66
2023-04-21T05:50:05.836Z,99799.97
2023-04-21T05:52:44.170Z,99807.72
2023-04-21T05:55:17.747Z,99807.75
2023-04-21T05:57:56.075Z,99800.28
2023-04-21T06:00:42.472Z,99800.34
2023-04-21T06:03:20.359Z,99800.66
2023-04-21T06:05:57.557Z,99803.72
2023-04-21T06:08:36.283Z,99802.41
2023-04-21T06:11:16.892Z,99802.06
2023-04-21T06:13:56.588Z,99799.19
2023-04-21T06:16:34.871Z,99801.69
2023-04-21T06:19:18.082Z,99794.47
2023-04-21T06:22:01.949Z,99801.53
2023-04-21T06:24:40.866Z,99797.66
2023-04-21T06:27:25.230Z,99799.88
2023-04-21T06:30:00.618Z,99805.03
2023-04-21T06:32:36.266Z,99797.78
2023-04-21T06:35:19.009Z,99797.19
2023-04-21T06:37:51.666Z,99793.91
2023-04-21T06:40:29.643Z,99798.00
2023-04-21T06:43:08.238Z,99795.19
2023-04-21T06:45:41.393Z,99795.63
2023-04-21T06:48:24.574Z,99795.56
2023-04-21T06:51:02.720Z,99795.97
2023-04-21T06:53:39.626Z,99796.72
2023-04-21T06:56:19.827Z,99797.16
2023-04-21T06:59:03.850Z,99798.75
2023-04-21T07:01:39.662Z,99797.09
2023-04-21T07:04:24.212Z,99790.78
2023-04-21T07:07:03.289Z,99794.00
2023-04-21T07:09:38.729Z,99793.75
2023-04-21T07:12:19.353Z,99792.34
2023-04-21T07:14:55.060Z,99794.00
2023-04-21T07:17:33.984Z,99798.63
2023-04-21T07:20:09.936Z,99794.78
2023-04-21T07:22:43.619Z,99787.59
2023-04-21T07:25:19.518Z,99791.50
2023-04-21T07:27:58.150Z,99794.78
2023-04-21T07:30:34.061Z,99794.50
2023-04-21T07:33:14.809Z,99791.31
2023-04-21T07:35:53.036Z,99781.44
2023-04-21T07:38:34.868Z,99780.63
2023-04-21T07:41:12.851Z,99784.69
2023-04-21T07:43:44.576Z,99777.31
2023-04-21T07:46:26.018Z,99777.59
2023-04-21T07:49:04.465Z,99781.69
2023-04-21T07:51:42.704Z,99772.34
2023-04-21T07:54:23.501Z,99778.97
2023-04-21T07:57:02.173Z,99786.28
2023-04-21T07:59:39.971Z,99779.25
2023-04-21T08:02:15.606Z,99777.63
2023-04-21T08:04:48.605Z,99771.81
2023-04-21T08:07:30.186Z,99772.13
2023-04-21T08:10:07.482Z,99772.59
2023-04-21T08:12:48.050Z,99766.88
2023-04-21T08:15:31.776Z,99771.22
2023-04-21T08:18:12.517Z,99771.28
2023-04-21T08:20:54.806Z,99770.44
2023-04-21T08:23:35.497Z,99771.28
2023-04-21T08:26:13.789Z,99771.25
2023-04-21T08:28:48.822Z,99772.81
2023-04-21T08:31:32.169Z,99767.59
2023-04-21T08:34:10.223Z,99777.03
2023-04-21T08:36:52.758Z,99774.47
2023-04-21T08:39:41.489Z,99772.81
2023-04-21T08:42:13.148Z,99777.53
2023-04-21T08:44:51.497Z,99769.84
2023-04-21T08:47:27.377Z,99764.44
2023-04-21T08:50:00.234Z,99763.31
2023-04-21T08:52:41.679Z,99767.38
2023-04-21T08:55:15.709Z,99771.56
2023-04-21T08:57:48.723Z,99767.72
2023-04-21T09:00:26.890Z,99777.00
2023-04-21T09:03:10.746Z,99767.59
2023-04-21T09:06:07.973Z,99766.25
2023-04-21T09:08:45.299Z,99762.94
2023-04-21T09:11:32.915Z,99762.97
2023-04-21T09:14:06.561Z,99755.78
2023-04-21T09:17:02.881Z,99746.63
2023-04-21T09:19:42.502Z,99747.41
2023-04-21T09:22:20.734Z,99754.22
2023-04-21T09:25:03.681Z,99755.75
2023-04-21T09:27:47.866Z,99755.16
2023-04-21T09:30:29.188Z,99745.34
2023-04-21T09:33:20.255Z,99745.72
2023-04-21T09:36:21.558Z,99738.13
2023-04-21T09:39:38.218Z,99742.47
2023-04-21T09:42:15.775Z,99734.13
2023-04-21T09:44:58.147Z,99725.31
2023-04-21T09:47:52.365Z,99719.94
2023-04-21T09:50:54.228Z,99728.41
2023-04-21T09:53:22.508Z,99717.72
2023-04-21T09:56:02.692Z,99718.22
2023-04-21T09:59:04.684Z,99718.34
2023-04-21T10:01:39.268Z,99717.38
2023-04-21T10:04:15.752Z,99713.81
2023-04-21T10:06:49.878Z,99716.03
2023-04-21T10:09:35.239Z,99716.72
2023-04-21T10:12:14.507Z,99708.09
2023-04-21T10:14:52.499Z,99705.81
2023-04-21T10:17:32.239Z,99707.41
2023-04-21T10:20:13.437Z,99710.00
2023-04-21T10:22:46.445Z,99705.97
2023-04-21T10:25:24.862Z,99705.09
2023-04-21T10:28:05.667Z,99706.91
2023-04-21T10:30:46.645Z,99704.75
2023-04-21T10:33:23.877Z,99695.50
2023-04-21T10:36:14.245Z,99698.38
2023-04-21T10:38:50.388Z,99697.72
2023-04-21T10:41:38.361Z,99700.06
2023-04-21T10:44:19.897Z,99694.06
2023-04-21T10:47:01.510Z,99688.91
2023-04-21T10:49:42.427Z,99691.59
2023-04-21T10:52:25.201Z,99683.63
2023-04-21T10:55:13.493Z,99679.13
2023-04-21T10:57:53.271Z,99672.81
2023-04-21T11:00:34.427Z,99671.97
2023-04-21T11:03:04.855Z,99672.66
2023-04-21T11:05:40.719Z,99669.91
2023-04-21T11:08:23.748Z,99672.06
2023-04-21T11:11:07.916Z,99673.16
2023-04-21T11:13:43.905Z,99663.06
2023-04-21T11:16:22.806Z,99672.09
2023-04-21T11:18:58.973Z,99669.06
2023-04-21T11:21:33.252Z,99662.97
2023-04-21T11:24:14.985Z,99664.94
2023-04-21T11:26:51.216Z,99665.00
2023-04-21T11:29:29.722Z,99665.13
2023-04-21T11:32:06.549Z,99660.81
2023-04-21T11:34:46.612Z,99657.31
2023-04-21T11:37:38.424Z,99663.00
2023-04-21T11:40:13.986Z,99657.94
2023-04-21T11:42:49.646Z,99652.53
2023-04-21T11:45:27.876Z,99655.06
2023-04-21T11:48:23.734Z,99655.03
2023-04-21T11:50:58.990Z,99657.09
2023-04-21T11:53:36.986Z,99654.03
2023-04-21T11:56:18.126Z,99656.06
2023-04-21T11:59:00.362Z,99655.28
2023-04-21T12:01:30.734Z,99654.25
2023-04-21T12:04:09.032Z,99649.53
2023-04-21T12:06:56.479Z,99649.47
2023-04-21T12:09:30.917Z,99651.00
2023-04-21T12:12:06.355Z,99647.63
2023-04-21T12:14:43.578Z,99652.94
2023-04-21T12:17:22.012Z,99646.28
2023-04-21T12:20:06.788Z,99644.38
2023-04-21T12:22:44.987Z,99648.28
2023-04-21T12:25:18.996Z,99641.03
2023-04-21T12:28:01.975Z,99644.94
2023-04-21T12:30:41.738Z,99645.13
2023-04-21T12:33:23.101Z,99640.75
2023-04-21T12:36:11.742Z,99645.88
2023-04-21T12:38:56.756Z,99643.06
2023-04-21T12:41:31.640Z,99639.84
2023-04-21T12:44:09.473Z,99648.56
2023-04-21T12:46:51.351Z,99638.28
2023-04-21T12:49:24.209Z,99632.19
2023-04-21T12:52:05.533Z,99632.22
2023-04-21T12:54:44.802Z,99624.59
2023-04-21T12:57:15.751Z,99627.84
2023-04-21T12:59:51.520Z,99620.44
2023-04-21T13:02:27.257Z,99631.09
2023-04-21T13:05:06.273Z,99621.00
2023-04-21T13:07:54.099Z,99624.19
2023-04-21T13:10:25.506Z,99619.81
2023-04-21T13:13:02.366Z,99622.72
2023-04-21T13:15:38.216Z,99616.63
2023-04-21T13:18:10.799Z,99617.88
2023-04-21T13:20:45.256Z,99615.38
2023-04-21T13:23:19.723Z,99613.25
2023-04-21T13:25:57.453Z,99613.75
2023-04-21T13:28:41.497Z,99611.38
2023-04-21T13:31:21.835Z,99610.41
2023-04-21T13:33:56.597Z,99605.00
2023-04-21T13:36:34.745Z,99602.19
2023-04-21T13:39:16.853Z,99596.81
2023-04-21T13:41:52.229Z,99595.91
2023-04-21T13:44:26.607Z,99593.09
2023-04-21T13:47:08.939Z,99587.56
2023-04-21T13:49:52.158Z,99576.00
2023-04-21T13:52:24.375Z,99580.44
2023-04-21T13:54:57.514Z,99582.06
2023-04-21T13:57:48.607Z,99574.69
2023-04-21T14:00:24.499Z,99575.03
2023-04-21T14:03:04.916Z,99570.09
2023-04-21T14:05:45.509Z,99571.16
2023-04-21T14:08:29.964Z,99559.63
2023-04-21T14:10:59.582Z,99551.66
2023-04-21T14:13:47.787Z,99552.88
2023-04-21T14:16:29.409Z,99555.44
2023-04-21T14:19:05.361Z,99558.91
2023-04-21T14:21:41.536Z,99547.34
2023-04-21T14:24:16.831Z,99550.50
2023-04-21T14:26:58.859Z,99553.47
2023-04-21T14:29:40.497Z,99546.53
2023-04-21T14:32:23.612Z,99541.22
2023-04-21T14:35:00.196Z,99543.94
2023-04-21T14:37:33.322Z,99540.25
2023-04-21T14:40:14.643Z,99538.84
2023-04-21T14:42:49.534Z,99535.63
2023-04-21T14:45:29.514Z,99546.22
2023-04-21T14:48:14.228Z,99535.34
2023-04-21T14:50:49.447Z,99535.88
2023-04-21T14:53:30.376Z,99532.94
2023-04-21T14:56:17.158Z,99531.88
2023-04-21T14:58:51.705Z,99529.56
2023-04-21T15:01:26.727Z,99535.47
2023-04-21T15:04:05.158Z,99524.75
2023-04-21T15:06:34.958Z,99533.34
2023-04-21T15:09:16.009Z,99528.81
2023-04-21T15:11:50.791Z,99525.19
2023-04-21T15:14:34.793Z,99523.09
2023-04-21T15:17:10.120Z,99522.13
2023-04-21T15:19:52.396Z,99517.28
2023-04-21T15:22:34.410Z,99518.28
2023-04-21T15:25:07.885Z,99511.75
2023-04-21T15:27:43.075Z,99508.72
2023-04-21T15:30:18.445Z,99510.38
2023-04-21T15:32:53.935Z,99505.84
2023-04-21T15:35:30.552Z,99515.50
2023-04-21T15:38:06.621Z,99513.16
2023-04-21T15:40:59.668Z,99507.41
2023-04-21T15:43:38.788Z,99505.72
2023-04-21T15:46:13.488Z,99507.94
2023-04-21T15:48:46.648Z,99502.06
2023-04-21T15:51:28.250Z,99505.88
2023-04-21T15:54:04.614Z,99506.31
2023-04-21T15:56:46.250Z,99505.69
2023-04-21T15:59:19.499Z,99500.88
2023-04-21T16:01:57.869Z,99502.69
2023-04-21T16:04:36.035Z,99496.78
2023-04-21T16:07:14.057Z,99491.06
2023-04-21T16:09:48.647Z,99486.47
2023-04-21T16:12:26.435Z,99484.16
2023-04-21T16:15:20.258Z,99476.25
2023-04-21T16:18:00.699Z,99479.13
2023-04-21T16:20:39.724Z,99484.09
2023-04-21T16:23:24.765Z,99483.22
2023-04-21T16:26:02.069Z,99489.34
2023-04-21T16:28:37.510Z,99485.81
2023-04-21T16:31:25.577Z,99485.91
2023-04-21T16:34:00.538Z,99479.72
2023-04-21T16:36:33.381Z,99482.53
2023-04-21T16:39:11.646Z,99484.47
2023-04-21T16:41:41.604Z,99484.94
2023-04-21T16:44:14.550Z,99483.69
2023-04-21T16:46:54.733Z,99481.91
2023-04-21T16:49:30.235Z,99482.06
2023-04-21T16:52:11.429Z,99494.81
2023-04-21T16:54:52.704Z,99489.81
2023-04-21T16:57:30.475Z,99479.00
2023-04-21T17:00:07.227Z,99486.09
2023-04-21T17:02:48.746Z,99485.13
2023-04-21T17:05:26.348Z,99481.47
2023-04-21T17:08:04.544Z,99478.25
2023-04-21T17:10:38.495Z,99489.84
2023-04-21T17:13:16.189Z,99484.63
2023-04-21T17:15:55.091Z,99481.00
2023-04-21T17:18:32.380Z,99483.19
2023-04-21T17:21:15.501Z,99483.31
2023-04-21T17:23:54.511Z,99486.72
2023-04-21T17:26:32.203Z,99481.34
2023-04-21T17:29:11.187Z,99490.69
2023-04-21T17:31:52.563Z,99488.25
2023-04-21T17:34:38.537Z,99486.69
2023-04-21T17:37:26.173Z,99483.72
2023-04-21T17:40:12.951Z,99482.94
2023-04-21T17:42:46.807Z,99483.72
2023-04-21T17:45:25.461Z,99488.69
2023-04-21T17:48:03.213Z,99485.94
2023-04-21T17:50:36.066Z,99493.31
2023-04-21T17:53:19.908Z,99496.28
2023-04-21T17:56:00.677Z,99493.00
2023-04-21T17:58:41.070Z,99492.44
2023-04-21T18:01:25.772Z,99489.66
2023-04-21T18:04:05.625Z,99496.09
2023-04-21T18:06:41.332Z,99496.00
2023-04-21T18:09:16.652Z,99502.19
2023-04-21T18:11:52.461Z,99503.31
2023-04-21T18:14:33.389Z,99508.09
2023-04-21T18:17:11.542Z,99513.66
2023-04-21T18:19:55.402Z,99516.44
2023-04-21T18:22:30.818Z,99523.59
2023-04-21T18:25:08.484Z,99514.91
2023-04-21T18:27:44.922Z,99514.06
2023-04-21T18:30:18.045Z,99517.53
2023-04-21T18:33:03.702Z,99514.09
2023-04-21T18:35:41.799Z,99518.94
2023-04-21T18:38:16.655Z,99518.28
2023-04-21T18:40:55.429Z,99524.69
2023-04-21T18:43:34.768Z,99518.28
2023-04-21T18:46:04.800Z,99523.03
2023-04-21T18:48:44.974Z,99524.31
2023-04-21T18:51:32.965Z,99528.78
2023-04-21T18:54:12.343Z,99524.25
2023-04-21T18:56:53.360Z,99523.19
2023-04-21T18:59:31.464Z,99522.25
2023-04-21T19:02:09.279Z,99520.03
2023-04-21T19:04:50.695Z,99523.84
2023-04-21T19:07:27.120Z,99523.00
2023-04-21T19:10:00.777Z,99520.78
2023-04-21T19:12:44.644Z,99526.75
2023-04-21T19:15:18.496Z,99527.13
2023-04-21T19:18:00.142Z,99522.88
2023-04-21T19:20:39.538Z,99524.63
2023-04-21T19:23:14.399Z,99528.88
2023-04-21T19:25:57.507Z,99530.91
2023-04-21T19:28:32.037Z,99528.06
2023-04-21T19:31:08.753Z,99528.72
2023-04-21T19:33:48.196Z,99526.78
2023-04-21T19:36:29.401Z,99528.38
2023-04-21T19:39:10.342Z,99531.41
2023-04-21T19:41:43.837Z,99523.97
2023-04-21T19:44:23.376Z,99527.88
2023-04-21T19:46:59.517Z,99530.22
2023-04-21T19:49:43.172Z,99530.88
2023-04-21T19:52:32.392Z,99535.38
2023-04-21T19:55:05.471Z,99529.84
2023-04-21T19:57:48.857Z,99529.50
2023-04-21T20:00:34.465Z,99535.34
2023-04-21T20:03:12.300Z,99532.94
2023-04-21T20:05:49.750Z,99536.84
2023-04-21T20:08:23.142Z,99535.25
2023-04-21T20:11:08.914Z,99532.63
2023-04-21T20:13:53.477Z,99532.19
2023-04-21T20:16:28.536Z,99541.72
2023-04-21T20:19:05.481Z,99533.47
2023-04-21T20:21:44.153Z,99545.31
2023-04-21T20:24:24.904Z,99534.13
2023-04-21T20:27:02.401Z,99541.75
2023-04-21T20:29:43.682Z,99543.88
2023-04-21T20:32:22.550Z,99534.13
2023-04-21T20:35:03.121Z,99542.22
2023-04-21T20:37:38.381Z,99548.22
2023-04-21T20:40:15.969Z,99548.44
2023-04-21T20:43:06.489Z,99548.00
2023-04-21T20:45:49.654Z,99556.50
2023-04-21T20:48:28.879Z,99550.47
2023-04-21T20:51:05.531Z,99549.44
2023-04-21T20:53:43.395Z,99555.88
2023-04-21T20:56:25.144Z,99552.16
2023-04-21T20:58:55.125Z,99550.72
2023-04-21T21:01:38.904Z,99543.81
2023-04-21T21:04:16.609Z,99552.34
2023-04-21T21:06:58.453Z,99555.88
2023-04-21T21:09:41.648Z,99552.16
2023-04-21T21:12:17.496Z,99545.31
2023-04-21T21:14:52.987Z,99549.28
2023-04-21T21:17:25.889Z,99552.00
2023-04-21T21:19:58.886Z,99552.72
2023-04-21T21:22:34.607Z,99556.13
2023-04-21T21:25:15.061Z,99554.84
2023-04-21T21:27:53.110Z,99560.41
2023-04-21T21:30:28.464Z,99554.59
2023-04-21T21:33:10.922Z,99559.97
2023-04-21T21:35:43.073Z,99561.06
2023-04-21T21:38:17.596Z,99561.88
2023-04-21T21:40:55.359Z,99556.28
2023-04-21T21:43:33.949Z,99561.53
2023-04-21T21:46:07.593Z,99565.91
2023-04-21T21:48:43.501Z,99571.13
2023-04-21T21:51:21.144Z,99571.13
2023-04-21T21:54:01.880Z,99560.34
2023-04-21T21:56:40.113Z,99561.84
2023-04-21T21:59:24.535Z,99560.94
2023-04-21T22:02:02.316Z,99565.38
2023-04-21T22:04:38.463Z,99562.28
2023-04-21T22:07:16.492Z,99559.00
2023-04-21T22:09:55.481Z,99564.59
2023-04-21T22:12:33.581Z,99564.84
2023-04-21T22:15:08.662Z,99566.75
2023-04-21T22:17:49.427Z,99579.13
2023-04-21T22:20:31.024Z,99569.94
2023-04-21T22:23:07.828Z,99567.84
2023-04-21T22:25:52.126Z,99571.19
2023-04-21T22:28:30.375Z,99571.81
2023-04-21T22:31:11.116Z,99560.75
2023-04-21T22:33:52.436Z,99567.59
2023-04-21T22:36:39.424Z,99569.28
2023-04-21T22:39:12.709Z,99572.44
2023-04-21T22:41:53.282Z,99571.56
2023-04-21T22:44:31.432Z,99575.81
2023-04-21T22:47:09.672Z,99568.09
2023-04-21T22:49:48.085Z,99575.34
2023-04-21T22:52:21.496Z,99572.44
2023-04-21T22:54:59.249Z,99584.25
2023-04-21T22:57:36.515Z,99580.84
2023-04-21T23:00:17.042Z,99591.13
2023-04-21T23:02:58.467Z,99581.44
2023-04-21T23:05:38.667Z,99578.38
2023-04-21T23:08:19.948Z,99588.03
2023-04-21T23:11:06.529Z,99597.09
2023-04-21T23:13:38.403Z,99591.91
2023-04-21T23:16:11.575Z,99594.84
2023-04-21T23:18:47.080Z,99589.88
2023-04-21T23:21:20.776Z,99588.06
2023-04-21T23:23:56.175Z,99593.22
2023-04-21T23:26:28.630Z,99597.75
2023-04-21T23:29:06.808Z,99596.09
2023-04-21T23:31:44.727Z,99591.13
2023-04-21T23:34:17.061Z,99596.09
2023-04-21T23:36:56.547Z,99589.47
2023-04-21T23:39:50.530Z,99586.22
2023-04-21T23:42:28.245Z,99587.88
2023-04-21T23:45:05.142Z,99582.84
2023-04-21T23:47:49.199Z,99581.00
2023-04-21T23:50:24.698Z,99574.63
2023-04-21T23:53:08.523Z,99570.69
2023-04-21T23:55:46.275Z,99575.59
2023-04-21T23:58:21.646Z,99573.31
